Time;durP1;ratioP1;P1;durP2;ratioP2;P2;SDS_P1;SDS_P2;PMS_P1;PMS_P2;Temp;Humidity;BMP_temperature;BMP_pressure;BME280_temperature;BME280_humidity;BME280_pressure;Samples;Min_cycle;Max_cycle;Signal;HPM_P1;HPM_P2
2022/10/12 00:00:29;;;;;;;12.17;5.83;;;4.70;99.90;;;;;;6249092;22;20189;-43
2022/10/12 00:02:55;;;;;;;9.77;5.60;;;4.60;99.90;;;;;;6249202;22;20149;-44
2022/10/12 00:05:22;;;;;;;12.83;5.93;;;4.60;99.90;;;;;;6249949;22;20180;-44
2022/10/12 00:07:47;;;;;;;10.97;5.43;;;4.60;99.90;;;;;;6249385;22;20171;-43
2022/10/12 00:10:13;;;;;;;11.37;5.63;;;4.60;99.90;;;;;;6247483;23;20489;-44
2022/10/12 00:12:38;;;;;;;8.97;5.17;;;4.60;99.90;;;;;;6249322;23;20283;-45
2022/10/12 00:15:04;;;;;;;9.37;5.27;;;4.60;99.90;;;;;;6251058;22;20183;-44
2022/10/12 00:17:30;;;;;;;10.37;5.27;;;4.50;99.90;;;;;;6251247;22;20184;-45
2022/10/12 00:19:56;;;;;;;9.07;5.37;;;4.50;99.90;;;;;;6249169;23;20211;-44
2022/10/12 00:22:21;;;;;;;7.83;4.80;;;4.50;99.90;;;;;;6251264;22;20638;-42
2022/10/12 00:24:47;;;;;;;10.60;4.90;;;4.50;99.90;;;;;;6251557;22;20161;-43
2022/10/12 00:27:13;;;;;;;7.90;4.57;;;4.40;99.90;;;;;;6249727;23;20270;-45
2022/10/12 00:29:38;;;;;;;7.53;4.43;;;4.40;99.90;;;;;;6252206;22;20157;-43
2022/10/12 00:32:04;;;;;;;8.63;4.47;;;4.40;99.90;;;;;;6252003;22;20190;-42
2022/10/12 00:34:29;;;;;;;10.40;4.50;;;4.40;99.90;;;;;;6253624;22;20158;-44
2022/10/12 00:36:55;;;;;;;11.03;4.87;;;4.40;99.90;;;;;;6254034;22;20200;-43
2022/10/12 00:39:21;;;;;;;9.73;5.07;;;4.30;99.90;;;;;;6252194;23;20183;-44
2022/10/12 00:41:47;;;;;;;9.70;4.77;;;4.30;99.90;;;;;;6250700;22;20168;-44
2022/10/12 00:44:34;;;;;;;10.43;5.20;;;4.30;99.90;;;;;;6250937;22;20156;-42
2022/10/12 00:47:06;;;;;;;11.73;4.73;;;4.30;99.90;;;;;;6250526;22;20171;-43
2022/10/12 00:49:33;;;;;;;10.53;5.10;;;4.30;99.90;;;;;;6249258;23;20492;-44
2022/10/12 00:52:05;;;;;;;12.37;5.30;;;4.20;99.90;;;;;;6250738;22;20164;-44
2022/10/12 00:54:35;;;;;;;11.40;4.27;;;4.20;99.90;;;;;;6249286;23;20495;-44
2022/10/12 00:57:03;;;;;;;10.60;4.70;;;4.20;99.90;;;;;;6251177;22;20617;-42
2022/10/12 00:59:38;;;;;;;9.20;5.23;;;4.20;99.90;;;;;;6252077;22;20177;-44
2022/10/12 01:02:04;;;;;;;9.30;4.90;;;4.20;99.90;;;;;;6250535;23;20147;-43
2022/10/12 01:04:32;;;;;;;12.37;5.20;;;4.10;99.90;;;;;;6251038;22;20174;-45
2022/10/12 01:06:58;;;;;;;11.73;5.30;;;4.10;99.90;;;;;;6249694;23;20202;-44
2022/10/12 01:09:26;;;;;;;11.33;5.17;;;4.10;99.90;;;;;;6252148;22;20152;-44
2022/10/12 01:11:52;;;;;;;9.20;5.10;;;4.10;99.90;;;;;;6250076;23;20160;-45
2022/10/12 01:14:17;;;;;;;13.00;5.80;;;4.10;99.90;;;;;;6252164;22;20166;-43
2022/10/12 01:17:12;;;;;;;8.43;5.00;;;4.00;99.90;;;;;;6252386;22;20669;-43
2022/10/12 01:20:15;;;;;;;9.20;5.10;;;4.10;99.90;;;;;;6249705;23;20270;-42
2022/10/12 01:22:47;;;;;;;10.33;5.27;;;4.00;99.90;;;;;;6250578;23;20226;-44
2022/10/12 01:25:47;;;;;;;8.73;4.90;;;4.00;99.90;;;;;;6251435;22;20194;-45
2022/10/12 01:28:36;;;;;;;11.27;5.30;;;4.00;99.90;;;;;;6251839;22;20179;-45
2022/10/12 01:31:20;;;;;;;13.50;5.13;;;3.90;99.90;;;;;;6252494;22;20143;-44
2022/10/12 01:33:57;;;;;;;10.63;5.40;;;3.90;99.90;;;;;;6251415;22;20222;-45
2022/10/12 01:36:34;;;;;;;11.90;5.23;;;3.90;99.90;;;;;;6249503;23;20197;-44
2022/10/12 01:39:02;;;;;;;10.37;4.87;;;3.90;99.90;;;;;;6251142;22;20172;-45
2022/10/12 01:41:39;;;;;;;15.10;5.67;;;3.80;99.90;;;;;;6252007;22;20470;-43
2022/10/12 01:44:05;;;;;;;11.50;5.03;;;3.80;99.90;;;;;;6252010;22;20481;-44
2022/10/12 01:46:30;;;;;;;13.30;5.47;;;3.80;99.90;;;;;;6251350;22;20148;-42
2022/10/12 01:48:59;;;;;;;10.07;5.03;;;3.80;99.90;;;;;;6250052;23;20177;-43
2022/10/12 01:51:39;;;;;;;13.67;5.87;;;3.80;99.90;;;;;;6251082;22;20152;-41
2022/10/12 01:54:25;;;;;;;10.80;5.23;;;3.80;99.90;;;;;;6250703;22;20529;-44
2022/10/12 01:57:19;;;;;;;12.07;5.43;;;3.80;99.90;;;;;;6251560;22;20186;-42
2022/10/12 02:00:10;;;;;;;10.40;5.53;;;3.70;99.90;;;;;;6251273;22;20168;-43
2022/10/12 02:03:00;;;;;;;9.90;5.53;;;3.70;99.90;;;;;;6250743;22;20136;-44
2022/10/12 02:05:26;;;;;;;13.53;5.20;;;3.70;99.90;;;;;;6251576;22;20136;-45
2022/10/12 02:08:00;;;;;;;10.80;5.40;;;3.70;99.90;;;;;;6251260;22;20172;-43
2022/10/12 02:10:35;;;;;;;10.67;5.07;;;3.70;99.90;;;;;;6251292;22;20559;-42
2022/10/12 02:13:05;;;;;;;14.40;5.40;;;3.70;99.90;;;;;;6251369;22;20163;-43
2022/10/12 02:15:32;;;;;;;12.37;5.73;;;3.70;99.90;;;;;;6250906;22;20151;-44
2022/10/12 02:17:59;;;;;;;13.90;5.93;;;3.60;99.90;;;;;;6251228;23;20172;-43
2022/10/12 02:20:26;;;;;;;9.00;5.70;;;3.60;99.90;;;;;;6251393;22;20182;-44
2022/10/12 02:22:53;;;;;;;13.87;5.80;;;3.60;99.90;;;;;;6252048;22;20180;-42
2022/10/12 02:25:22;;;;;;;11.83;6.10;;;3.60;99.90;;;;;;6249273;23;20156;-42
2022/10/12 02:28:04;;;;;;;10.90;5.60;;;3.60;99.90;;;;;;6251190;22;20626;-43
2022/10/12 02:30:37;;;;;;;13.90;5.40;;;3.60;99.90;;;;;;6251090;22;20146;-43
2022/10/12 02:33:15;;;;;;;11.70;5.63;;;3.60;99.90;;;;;;6250380;23;20152;-45
2022/10/12 02:35:54;;;;;;;11.83;5.73;;;3.60;99.90;;;;;;6250515;22;20150;-45
2022/10/12 02:38:41;;;;;;;13.73;5.57;;;3.50;99.90;;;;;;6250962;22;20198;-44
2022/10/12 02:41:13;;;;;;;11.57;5.33;;;3.50;99.90;;;;;;6251341;22;20148;-45
2022/10/12 02:43:49;;;;;;;11.07;5.60;;;3.50;99.90;;;;;;6251403;22;20147;-44
2022/10/12 02:46:17;;;;;;;13.37;5.87;;;3.40;99.90;;;;;;6251817;22;20147;-44
2022/10/12 02:48:45;;;;;;;9.47;5.63;;;3.50;99.90;;;;;;6250859;22;20155;-44
2022/10/12 02:51:11;;;;;;;13.07;5.90;;;3.40;99.90;;;;;;6250509;22;20596;-44
2022/10/12 02:53:38;;;;;;;9.93;5.53;;;3.40;99.90;;;;;;6248300;23;20179;-42
2022/10/12 02:56:06;;;;;;;12.07;5.90;;;3.40;99.90;;;;;;6250230;22;20540;-42
2022/10/12 02:58:32;;;;;;;11.77;5.43;;;3.40;99.90;;;;;;6249805;22;20171;-44
2022/10/12 03:00:58;;;;;;;12.20;5.73;;;3.40;99.90;;;;;;6250261;22;20636;-46
2022/10/12 03:03:24;;;;;;;12.50;5.83;;;3.40;99.90;;;;;;6249771;22;20147;-43
2022/10/12 03:05:49;;;;;;;17.70;6.17;;;3.40;99.90;;;;;;6247779;23;20231;-43
2022/10/12 03:08:15;;;;;;;13.30;5.87;;;3.40;99.90;;;;;;6250632;22;20618;-45
2022/10/12 03:10:41;;;;;;;10.83;5.47;;;3.30;99.90;;;;;;6249534;22;20156;-44
2022/10/12 03:13:06;;;;;;;10.93;5.63;;;3.30;99.90;;;;;;6247393;22;20156;-40
2022/10/12 03:15:32;;;;;;;14.27;6.40;;;3.30;99.90;;;;;;6246126;22;20151;-40
2022/10/12 03:17:57;;;;;;;11.40;5.77;;;3.30;99.90;;;;;;6246407;22;20320;-38
2022/10/12 03:20:23;;;;;;;8.37;5.23;;;3.20;99.90;;;;;;6245995;22;20186;-40
2022/10/12 03:22:49;;;;;;;15.23;6.20;;;3.20;99.90;;;;;;6246296;22;20230;-38
2022/10/12 03:25:15;;;;;;;10.50;5.40;;;3.30;99.90;;;;;;6246280;22;20206;-40
2022/10/12 03:27:41;;;;;;;9.57;5.40;;;3.20;99.90;;;;;;6244782;23;20222;-39
2022/10/12 03:30:07;;;;;;;14.37;5.67;;;3.20;99.90;;;;;;6244823;23;20540;-40
2022/10/12 03:32:32;;;;;;;12.03;5.47;;;3.20;99.90;;;;;;6244511;23;20164;-40
2022/10/12 03:34:58;;;;;;;12.90;5.83;;;3.10;99.90;;;;;;6246156;22;20175;-42
2022/10/12 03:37:23;;;;;;;10.90;5.00;;;3.10;99.90;;;;;;6246169;22;20195;-43
2022/10/12 03:39:49;;;;;;;10.27;5.53;;;3.10;99.90;;;;;;6247786;22;20575;-38
2022/10/12 03:42:15;;;;;;;11.80;5.53;;;3.00;99.90;;;;;;6247529;22;20206;-40
2022/10/12 03:44:40;;;;;;;10.60;5.47;;;3.00;99.90;;;;;;6246776;22;20530;-39
2022/10/12 03:47:06;;;;;;;13.33;5.80;;;3.00;99.90;;;;;;6248416;22;20647;-41
2022/10/12 03:49:32;;;;;;;12.10;5.17;;;3.00;99.90;;;;;;6248747;22;20162;-39
2022/10/12 03:51:58;;;;;;;10.73;5.03;;;3.00;99.90;;;;;;6248411;22;20187;-39
2022/10/12 03:54:23;;;;;;;17.57;5.77;;;3.00;99.90;;;;;;6248081;23;20163;-43
2022/10/12 03:56:49;;;;;;;10.03;4.93;;;3.00;99.90;;;;;;6252340;22;20435;-43
2022/10/12 03:59:14;;;;;;;12.20;5.10;;;2.90;99.90;;;;;;6252773;22;20175;-43
2022/10/12 04:01:40;;;;;;;8.37;5.40;;;2.90;99.90;;;;;;6250213;23;20160;-44
2022/10/12 04:04:06;;;;;;;10.00;5.70;;;2.90;99.90;;;;;;6252343;22;20155;-43
2022/10/12 04:06:31;;;;;;;12.07;5.20;;;2.90;99.90;;;;;;6250500;23;20156;-43
2022/10/12 04:08:57;;;;;;;9.27;5.67;;;2.90;99.90;;;;;;6252150;22;20174;-42
2022/10/12 04:11:22;;;;;;;11.93;5.47;;;2.90;99.90;;;;;;6251515;22;20151;-43
2022/10/12 04:13:48;;;;;;;9.37;4.57;;;2.90;99.90;;;;;;6251842;22;20155;-42
2022/10/12 04:16:13;;;;;;;11.20;5.07;;;2.90;99.90;;;;;;6250874;22;20162;-44
2022/10/12 04:18:39;;;;;;;9.03;4.77;;;2.90;99.90;;;;;;6248474;22;20155;-41
2022/10/12 04:21:09;;;;;;;12.30;4.90;;;2.90;99.90;;;;;;6247923;22;20202;-42
2022/10/12 04:23:35;;;;;;;17.03;5.03;;;2.90;99.90;;;;;;6246036;23;20158;-44
2022/10/12 04:26:00;;;;;;;14.87;5.33;;;2.90;99.90;;;;;;6247872;22;20488;-42
2022/10/12 04:28:26;;;;;;;13.30;5.40;;;3.00;99.90;;;;;;6247855;22;20203;-44
2022/10/12 04:30:51;;;;;;;12.20;5.30;;;3.00;99.90;;;;;;6247697;22;20156;-44
2022/10/12 04:33:17;;;;;;;14.70;5.20;;;3.00;99.90;;;;;;6247992;22;20183;-43
2022/10/12 04:35:43;;;;;;;11.17;4.73;;;3.00;99.90;;;;;;6247415;22;20660;-42
2022/10/12 04:38:08;;;;;;;12.30;5.07;;;3.00;99.90;;;;;;6246073;23;20209;-44
2022/10/12 04:40:34;;;;;;;8.93;4.33;;;3.00;99.90;;;;;;6246174;23;20188;-45
2022/10/12 04:43:00;;;;;;;9.57;4.40;;;3.00;99.90;;;;;;6248227;22;20578;-42
2022/10/12 04:45:25;;;;;;;8.17;4.57;;;2.90;99.90;;;;;;6247544;22;20201;-44
2022/10/12 04:47:51;;;;;;;9.50;4.90;;;3.00;99.90;;;;;;6247259;22;20194;-43
2022/10/12 04:50:16;;;;;;;11.70;5.10;;;3.00;99.90;;;;;;6247838;22;20209;-45
2022/10/12 04:52:42;;;;;;;9.20;4.30;;;3.00;99.90;;;;;;6247827;22;20151;-43
2022/10/12 04:55:08;;;;;;;7.30;4.43;;;2.90;99.90;;;;;;6247395;22;20155;-42
2022/10/12 04:57:33;;;;;;;7.90;4.50;;;2.90;99.90;;;;;;6245587;23;20184;-44
2022/10/12 04:59:59;;;;;;;9.20;4.80;;;2.90;99.90;;;;;;6245780;23;20183;-42
2022/10/12 05:02:25;;;;;;;12.10;5.30;;;2.90;99.90;;;;;;6247641;22;20232;-43
2022/10/12 05:04:51;;;;;;;13.20;4.90;;;2.90;99.90;;;;;;6248165;22;20183;-42
2022/10/12 05:07:17;;;;;;;8.27;4.33;;;2.80;99.90;;;;;;6247470;22;20172;-44
2022/10/12 05:09:42;;;;;;;7.43;4.17;;;2.80;99.90;;;;;;6247907;22;20183;-42
2022/10/12 05:12:08;;;;;;;7.00;4.13;;;2.80;99.90;;;;;;6247139;22;20152;-43
2022/10/12 05:14:33;;;;;;;10.47;4.23;;;2.80;99.90;;;;;;6247927;22;20156;-44
2022/10/12 05:16:59;;;;;;;7.20;4.30;;;2.80;99.90;;;;;;6248015;22;20466;-43
2022/10/12 05:19:25;;;;;;;11.13;4.23;;;2.70;99.90;;;;;;6247991;22;20187;-44
2022/10/12 05:21:52;;;;;;;12.57;4.40;;;2.70;99.90;;;;;;6247494;22;20523;-40
2022/10/12 05:24:17;;;;;;;9.50;4.63;;;2.70;99.90;;;;;;6247412;22;20207;-40
2022/10/12 05:26:43;;;;;;;9.43;4.13;;;2.70;99.90;;;;;;6246950;22;20568;-41
2022/10/12 05:29:08;;;;;;;10.20;4.30;;;2.70;99.90;;;;;;6245737;23;20167;-39
2022/10/12 05:31:34;;;;;;;11.70;4.43;;;2.70;99.90;;;;;;6247415;22;20163;-41
2022/10/12 05:33:59;;;;;;;9.67;4.67;;;2.60;99.90;;;;;;6250787;22;20213;-39
2022/10/12 05:36:25;;;;;;;11.07;4.53;;;2.60;99.90;;;;;;6250604;22;20171;-39
2022/10/12 05:38:51;;;;;;;7.07;3.80;;;2.60;99.90;;;;;;6252363;22;20152;-39
2022/10/12 05:41:17;;;;;;;8.50;3.93;;;2.60;99.90;;;;;;6251872;22;20201;-44
2022/10/12 05:43:42;;;;;;;9.27;4.60;;;2.50;99.90;;;;;;6246663;23;20582;-42
2022/10/12 05:46:08;;;;;;;7.47;4.47;;;2.50;99.90;;;;;;6247446;22;20155;-44
2022/10/12 05:48:33;;;;;;;8.53;4.40;;;2.50;99.90;;;;;;6245401;23;20175;-42
2022/10/12 05:50:59;;;;;;;9.57;4.23;;;2.50;99.90;;;;;;6247055;22;20155;-42
2022/10/12 05:53:25;;;;;;;9.07;4.53;;;2.50;99.90;;;;;;6247423;22;20151;-43
2022/10/12 05:55:55;;;;;;;7.70;4.60;;;2.40;99.90;;;;;;6246783;22;20152;-44
2022/10/12 05:58:22;;;;;;;7.73;4.60;;;2.40;99.90;;;;;;6246918;22;20195;-44
2022/10/12 06:00:47;;;;;;;8.67;4.53;;;2.40;99.90;;;;;;6245167;23;20571;-42
2022/10/12 06:03:13;;;;;;;12.63;4.37;;;2.40;99.90;;;;;;6245150;23;20179;-43
2022/10/12 06:05:38;;;;;;;9.93;4.93;;;2.40;99.90;;;;;;6245157;23;20665;-43
2022/10/12 06:08:04;;;;;;;7.03;4.10;;;2.40;99.90;;;;;;6246804;22;20225;-43
2022/10/12 06:10:30;;;;;;;9.40;4.87;;;2.40;99.90;;;;;;6246729;22;20151;-44
2022/10/12 06:12:56;;;;;;;9.73;5.47;;;2.40;99.90;;;;;;6246774;22;20161;-43
2022/10/12 06:15:22;;;;;;;9.07;4.93;;;2.40;99.90;;;;;;6246083;23;20160;-43
2022/10/12 06:17:47;;;;;;;9.20;5.17;;;2.40;99.90;;;;;;6246511;22;20261;-43
2022/10/12 06:20:13;;;;;;;9.40;5.47;;;2.40;99.90;;;;;;6244927;23;20187;-43
2022/10/12 06:22:38;;;;;;;10.17;5.53;;;2.40;99.90;;;;;;6247046;22;20162;-44
2022/10/12 06:25:04;;;;;;;9.00;5.93;;;2.40;99.90;;;;;;6245113;23;20183;-44
2022/10/12 06:27:30;;;;;;;8.23;5.30;;;2.40;99.90;;;;;;6244964;23;20517;-45
2022/10/12 06:29:55;;;;;;;6.97;4.37;;;2.40;99.90;;;;;;6246793;22;20151;-43
2022/10/12 06:32:21;;;;;;;7.53;4.03;;;2.40;99.90;;;;;;6246453;22;20601;-44
2022/10/12 06:34:46;;;;;;;8.23;4.33;;;2.50;99.90;;;;;;6246391;22;20159;-42
2022/10/12 06:37:12;;;;;;;9.67;4.40;;;2.50;99.90;;;;;;6246269;22;20219;-44
2022/10/12 06:39:38;;;;;;;8.13;4.50;;;2.50;99.90;;;;;;6246625;22;20516;-46
2022/10/12 06:42:03;;;;;;;7.13;3.90;;;2.60;99.90;;;;;;6246789;22;20578;-43
2022/10/12 06:44:29;;;;;;;9.00;3.97;;;2.60;99.90;;;;;;6246839;22;20578;-43
2022/10/12 06:46:54;;;;;;;8.30;4.30;;;2.60;99.90;;;;;;6246754;22;20171;-42
2022/10/12 06:49:20;;;;;;;8.80;4.47;;;2.70;99.90;;;;;;6244862;23;20170;-42
2022/10/12 06:51:45;;;;;;;11.97;5.03;;;2.70;99.90;;;;;;6245016;23;20524;-44
2022/10/12 06:54:11;;;;;;;11.53;4.33;;;2.70;99.90;;;;;;6246676;22;20155;-43
2022/10/12 06:56:38;;;;;;;8.50;4.70;;;2.80;99.90;;;;;;6245923;22;20176;-43
2022/10/12 06:59:04;;;;;;;12.90;4.63;;;2.80;99.90;;;;;;6246175;22;20322;-42
2022/10/12 07:01:29;;;;;;;10.33;4.53;;;2.90;99.90;;;;;;6246700;22;20175;-44
2022/10/12 07:03:55;;;;;;;11.00;5.07;;;2.90;99.90;;;;;;6247468;22;20151;-44
2022/10/12 07:06:20;;;;;;;10.80;5.33;;;2.90;99.90;;;;;;6247271;22;20578;-43
2022/10/12 07:08:47;;;;;;;10.23;5.10;;;3.00;99.90;;;;;;6246851;22;20159;-45
2022/10/12 07:11:13;;;;;;;7.63;4.97;;;3.10;99.90;;;;;;6244611;23;20155;-44
2022/10/12 07:13:39;;;;;;;8.43;5.40;;;3.20;99.90;;;;;;6246385;22;20162;-44
2022/10/12 07:16:06;;;;;;;8.77;4.87;;;3.30;99.90;;;;;;6244883;23;20597;-44
2022/10/12 07:18:32;;;;;;;18.73;6.60;;;3.50;99.90;;;;;;6244509;23;20179;-43
2022/10/12 07:20:58;;;;;;;11.43;6.27;;;3.60;99.90;;;;;;6247160;22;20178;-44
2022/10/12 07:23:24;;;;;;;13.10;6.50;;;3.70;99.90;;;;;;6246508;23;20155;-42
2022/10/12 07:25:51;;;;;;;16.80;6.80;;;3.90;99.90;;;;;;6248108;22;20159;-43
2022/10/12 07:28:18;;;;;;;12.13;6.90;;;4.00;99.90;;;;;;6248230;22;20699;-44
2022/10/12 07:30:44;;;;;;;13.30;6.60;;;4.10;99.90;;;;;;6248848;22;20154;-42
2022/10/12 07:33:10;;;;;;;19.37;7.00;;;4.20;99.90;;;;;;6246479;23;20162;-44
2022/10/12 07:35:35;;;;;;;17.80;7.67;;;4.40;99.90;;;;;;6246353;23;20164;-43
2022/10/12 07:38:01;;;;;;;16.40;7.70;;;4.50;99.90;;;;;;6246496;23;20186;-43
2022/10/12 07:40:28;;;;;;;20.87;8.50;;;4.60;99.90;;;;;;6246417;23;20218;-44
2022/10/12 07:42:53;;;;;;;21.03;7.97;;;4.80;99.90;;;;;;6248213;22;20182;-43
2022/10/12 07:45:19;;;;;;;18.03;7.83;;;4.90;99.90;;;;;;6246331;23;20151;-44
2022/10/12 07:47:45;;;;;;;19.27;8.93;;;5.10;99.90;;;;;;6247750;23;20172;-42
2022/10/12 07:50:11;;;;;;;22.90;9.03;;;5.20;99.90;;;;;;6248206;22;20179;-43
2022/10/12 07:52:37;;;;;;;20.97;9.10;;;5.40;99.90;;;;;;6247872;22;20274;-41
2022/10/12 07:55:03;;;;;;;15.10;8.43;;;5.50;99.90;;;;;;6248191;22;20530;-44
2022/10/12 07:57:28;;;;;;;16.13;8.73;;;5.60;99.90;;;;;;6246342;23;20222;-43
2022/10/12 07:59:54;;;;;;;15.23;8.60;;;5.70;99.90;;;;;;6247790;22;20225;-44
2022/10/12 08:02:20;;;;;;;23.00;8.43;;;5.90;99.90;;;;;;6247783;22;20152;-44
2022/10/12 08:04:46;;;;;;;17.50;8.70;;;6.00;99.90;;;;;;6247651;22;20152;-45
2022/10/12 08:07:11;;;;;;;15.17;8.60;;;6.10;99.90;;;;;;6246240;23;20183;-43
2022/10/12 08:09:37;;;;;;;24.57;8.83;;;6.10;99.90;;;;;;6248168;22;20162;-43
2022/10/12 08:12:03;;;;;;;16.80;7.67;;;6.30;99.90;;;;;;6247764;22;20479;-43
2022/10/12 08:14:29;;;;;;;14.53;8.20;;;6.40;99.90;;;;;;6246266;23;20155;-44
2022/10/12 08:16:54;;;;;;;23.27;8.63;;;6.50;99.90;;;;;;6247771;22;20175;-43
2022/10/12 08:19:20;;;;;;;17.37;8.73;;;6.60;99.90;;;;;;6247710;22;20614;-42
2022/10/12 08:21:47;;;;;;;15.03;9.00;;;6.70;99.90;;;;;;6248067;22;20201;-45
2022/10/12 08:24:13;;;;;;;12.63;8.27;;;6.70;99.90;;;;;;6248571;22;20152;-42
2022/10/12 08:26:39;;;;;;;19.00;7.67;;;6.90;99.90;;;;;;6247914;22;20352;-43
2022/10/12 08:29:06;;;;;;;12.30;7.43;;;7.00;99.90;;;;;;6247933;22;20160;-43
2022/10/12 08:31:32;;;;;;;14.93;8.37;;;7.00;99.90;;;;;;6247307;22;20148;-42
2022/10/12 08:33:59;;;;;;;19.00;8.67;;;7.10;99.90;;;;;;6245960;23;20162;-43
2022/10/12 08:36:25;;;;;;;26.57;8.60;;;7.30;99.90;;;;;;6247142;22;20163;-42
2022/10/12 08:38:53;;;;;;;22.20;9.47;;;7.40;99.90;;;;;;6247672;22;20210;-45
2022/10/12 08:41:51;;;;;;;17.57;9.20;;;7.60;99.90;;;;;;6246015;23;20167;-42
2022/10/12 08:44:43;;;;;;;17.77;8.90;;;7.70;99.90;;;;;;6245872;23;20145;-44
2022/10/12 08:47:12;;;;;;;17.77;8.50;;;7.80;99.90;;;;;;6247660;22;20184;-43
2022/10/12 08:49:39;;;;;;;15.73;8.80;;;7.90;99.90;;;;;;6247424;22;20202;-42
2022/10/12 08:52:12;;;;;;;28.43;9.20;;;8.00;99.90;;;;;;6247476;22;20185;-44
2022/10/12 08:54:43;;;;;;;14.37;8.53;;;8.00;99.90;;;;;;6247882;22;20203;-45
2022/10/12 08:57:18;;;;;;;27.37;10.00;;;8.20;99.90;;;;;;6248054;22;20177;-44
2022/10/12 08:59:45;;;;;;;21.73;8.50;;;8.20;99.90;;;;;;6247842;22;20183;-45
2022/10/12 09:02:32;;;;;;;21.50;8.60;;;8.30;99.90;;;;;;6247671;22;20153;-45
2022/10/12 09:05:02;;;;;;;22.27;8.30;;;8.50;99.90;;;;;;6247628;22;20146;-45
2022/10/12 09:07:37;;;;;;;17.03;7.40;;;8.50;99.90;;;;;;6245996;23;20258;-43
2022/10/12 09:10:32;;;;;;;20.60;8.47;;;8.70;99.90;;;;;;6247354;22;20146;-45
2022/10/12 09:13:30;;;;;;;16.60;8.13;;;8.80;99.90;;;;;;6247118;22;20159;-44
2022/10/12 09:16:01;;;;;;;16.07;8.43;;;8.90;99.90;;;;;;6248095;22;20437;-45
2022/10/12 09:18:38;;;;;;;17.40;8.40;;;9.10;99.90;;;;;;6247086;22;20236;-42
2022/10/12 09:21:06;;;;;;;19.93;7.97;;;9.20;99.90;;;;;;6247223;22;20293;-44
2022/10/12 09:23:38;;;;;;;14.90;7.20;;;9.30;99.90;;;;;;6247156;22;20155;-44
2022/10/12 09:26:17;;;;;;;18.53;7.77;;;9.40;99.90;;;;;;6247906;22;20150;-44
2022/10/12 09:28:49;;;;;;;15.97;7.40;;;9.60;99.90;;;;;;6250165;22;20152;-43
2022/10/12 09:31:52;;;;;;;16.33;7.00;;;9.70;99.90;;;;;;6251679;22;20631;-45
2022/10/12 09:34:18;;;;;;;17.90;7.00;;;9.90;99.90;;;;;;6251248;23;20201;-43
2022/10/12 09:36:44;;;;;;;12.80;6.63;;;10.10;99.90;;;;;;6247237;22;20183;-43
2022/10/12 09:39:15;;;;;;;14.70;6.17;;;10.20;99.90;;;;;;6247517;22;20191;-45
2022/10/12 09:41:44;;;;;;;21.10;6.63;;;10.30;99.90;;;;;;6247289;22;20137;-42
2022/10/12 09:44:35;;;;;;;13.13;6.00;;;10.50;99.90;;;;;;6247594;22;20148;-45
2022/10/12 09:47:03;;;;;;;16.70;6.80;;;10.60;99.90;;;;;;6228578;23;20570;-43
2022/10/12 09:49:49;;;;;;;17.17;7.67;;;10.80;99.90;;;;;;6245225;23;20160;-43
2022/10/12 09:52:20;;;;;;;14.67;6.37;;;10.90;99.90;;;;;;6247435;22;20583;-44
2022/10/12 09:54:57;;;;;;;15.87;6.60;;;11.00;99.90;;;;;;6247172;22;20148;-44
2022/10/12 09:57:30;;;;;;;17.83;6.50;;;11.10;99.90;;;;;;6244999;23;20189;-44
2022/10/12 09:59:56;;;;;;;13.27;6.10;;;11.30;99.90;;;;;;6247115;22;20223;-45
2022/10/12 10:02:26;;;;;;;11.40;5.43;;;11.50;99.90;;;;;;6246884;22;20183;-44
2022/10/12 10:04:53;;;;;;;12.90;5.60;;;11.60;99.90;;;;;;6247356;22;20186;-44
2022/10/12 10:07:23;;;;;;;10.70;5.30;;;11.80;99.90;;;;;;6246612;22;20643;-44
2022/10/12 10:10:17;;;;;;;15.43;6.50;;;11.90;99.90;;;;;;6247043;22;20154;-43
2022/10/12 10:12:53;;;;;;;9.27;5.17;;;12.00;99.90;;;;;;6235653;22;20186;-42
2022/10/12 10:15:27;;;;;;;11.13;5.10;;;12.20;99.90;;;;;;6244984;23;20191;-43
2022/10/12 10:17:59;;;;;;;13.33;5.10;;;12.40;99.90;;;;;;6246788;22;20186;-41
2022/10/12 10:20:32;;;;;;;11.67;4.60;;;12.50;99.90;;;;;;6244925;23;20219;-44
2022/10/12 10:22:59;;;;;;;12.50;5.13;;;12.60;99.90;;;;;;6246924;22;20147;-44
2022/10/12 10:25:25;;;;;;;11.93;5.67;;;12.70;99.90;;;;;;6244702;23;20473;-43
2022/10/12 10:28:11;;;;;;;8.00;4.77;;;12.80;99.90;;;;;;6244672;23;20179;-42
2022/10/12 10:30:36;;;;;;;9.87;4.47;;;13.00;99.90;;;;;;6246971;22;20143;-44
2022/10/12 10:33:22;;;;;;;14.00;4.93;;;13.00;99.90;;;;;;6246680;22;20229;-45
2022/10/12 10:35:56;;;;;;;10.83;5.10;;;13.20;99.90;;;;;;6245506;22;20187;-43
2022/10/12 10:38:22;;;;;;;13.93;4.73;;;13.30;99.90;;;;;;6246461;22;20179;-43
2022/10/12 10:40:53;;;;;;;15.00;5.47;;;13.40;99.90;;;;;;6246329;22;20570;-47
2022/10/12 10:43:23;;;;;;;11.53;4.23;;;13.50;99.90;;;;;;6244454;23;20157;-45
2022/10/12 10:45:51;;;;;;;8.43;3.87;;;13.60;99.90;;;;;;6246490;22;20148;-45
2022/10/12 10:48:21;;;;;;;14.17;4.03;;;13.80;99.90;;;;;;6244471;23;20186;-44
2022/10/12 10:50:55;;;;;;;11.13;4.03;;;13.90;99.90;;;;;;6246126;22;20160;-45
2022/10/12 10:53:24;;;;;;;9.80;3.97;;;14.00;99.90;;;;;;6244933;23;20156;-43
2022/10/12 10:56:00;;;;;;;9.23;4.03;;;14.10;99.90;;;;;;6246135;22;20601;-46
2022/10/12 10:58:38;;;;;;;10.30;3.73;;;14.20;99.90;;;;;;6246038;22;20175;-45
2022/10/12 11:01:32;;;;;;;8.40;3.53;;;14.20;99.90;;;;;;6246033;22;20225;-44
2022/10/12 11:04:14;;;;;;;10.93;3.20;;;14.30;99.90;;;;;;6245095;23;20164;-46
2022/10/12 11:06:43;;;;;;;8.60;3.57;;;14.40;99.90;;;;;;6246354;22;20175;-45
2022/10/12 11:09:19;;;;;;;7.90;3.03;;;14.50;99.90;;;;;;6244632;23;20160;-43
2022/10/12 11:11:52;;;;;;;9.77;3.40;;;14.60;99.90;;;;;;6246149;22;20147;-43
2022/10/12 11:14:20;;;;;;;8.50;2.97;;;14.60;99.90;;;;;;6244556;23;20148;-45
2022/10/12 11:16:52;;;;;;;7.93;3.40;;;14.70;99.90;;;;;;6245895;22;20175;-46
2022/10/12 11:19:30;;;;;;;12.73;3.47;;;14.70;99.90;;;;;;6246241;22;20171;-44
2022/10/12 11:22:02;;;;;;;9.30;3.43;;;14.80;99.90;;;;;;6244353;23;20236;-45
2022/10/12 11:24:35;;;;;;;10.30;3.50;;;15.10;99.90;;;;;;6246502;22;20148;-44
2022/10/12 11:27:16;;;;;;;11.47;3.40;;;15.20;99.90;;;;;;6247429;22;20680;-46
2022/10/12 11:29:42;;;;;;;9.60;3.73;;;15.30;99.90;;;;;;6246868;22;20150;-43
2022/10/12 11:32:29;;;;;;;14.57;5.03;;;15.40;99.90;;;;;;6246071;22;20156;-40
2022/10/12 11:34:59;;;;;;;8.87;3.77;;;15.50;99.90;;;;;;6245950;22;20159;-40
2022/10/12 11:37:34;;;;;;;6.83;3.30;;;15.50;99.90;;;;;;6244199;23;20227;-41
2022/10/12 11:40:01;;;;;;;11.73;3.40;;;15.60;99.90;;;;;;6244277;23;20194;-41
2022/10/12 11:42:35;;;;;;;9.33;3.53;;;15.60;99.90;;;;;;6244757;23;20156;-41
2022/10/12 11:45:05;;;;;;;11.53;3.30;;;15.70;99.90;;;;;;6246809;22;20190;-42
2022/10/12 11:47:38;;;;;;;10.17;3.57;;;15.80;99.90;;;;;;6246401;22;20167;-41
2022/10/12 11:50:48;;;;;;;7.67;3.23;;;15.90;99.90;;;;;;6246131;22;20226;-39
2022/10/12 11:53:29;;;;;;;11.03;3.70;;;16.10;99.90;;;;;;6246052;23;20159;-47
2022/10/12 11:56:16;;;;;;;9.93;3.00;;;16.20;99.90;;;;;;6250759;22;20147;-45
2022/10/12 11:58:43;;;;;;;10.47;3.60;;;16.30;99.90;;;;;;6249558;22;20144;-48
2022/10/12 12:01:47;;;;;;;14.47;3.73;;;16.40;99.90;;;;;;6248813;22;20186;-48
2022/10/12 12:04:34;;;;;;;7.00;3.10;;;16.50;99.90;;;;;;6155889;23;20164;-46
2022/10/12 12:07:25;;;;;;;6.17;3.03;;;16.60;99.90;;;;;;6242541;22;20175;-48
2022/10/12 12:09:51;;;;;;;7.50;3.60;;;16.70;99.90;;;;;;6249986;23;20159;-46
2022/10/12 12:12:23;;;;;;;6.67;3.10;;;16.70;99.90;;;;;;6250696;22;20159;-45
2022/10/12 12:15:04;;;;;;;8.57;3.63;;;16.80;99.90;;;;;;6248693;23;20497;-47
2022/10/12 12:17:31;;;;;;;9.87;3.33;;;16.90;99.90;;;;;;6249761;22;20617;-46
2022/10/12 12:19:59;;;;;;;9.23;3.23;;;17.00;99.90;;;;;;6248497;23;20580;-47
2022/10/12 12:22:46;;;;;;;6.93;3.13;;;17.10;99.90;;;;;;6250576;22;20152;-45
2022/10/12 12:25:31;;;;;;;10.00;3.10;;;17.20;99.90;;;;;;6250791;22;20510;-47
2022/10/12 12:28:04;;;;;;;9.20;3.33;;;17.40;99.90;;;;;;6250651;22;20179;-45
2022/10/12 12:30:36;;;;;;;9.73;3.30;;;17.50;99.90;;;;;;6251132;22;20152;-48
2022/10/12 12:33:19;;;;;;;6.47;3.17;;;17.60;99.90;;;;;;6251064;22;20229;-48
2022/10/12 12:36:03;;;;;;;7.27;2.70;;;17.70;99.90;;;;;;6250929;22;20261;-46
2022/10/12 12:38:37;;;;;;;9.27;3.37;;;17.80;99.90;;;;;;6248839;23;20247;-46
2022/10/12 12:41:05;;;;;;;8.50;3.13;;;17.80;99.90;;;;;;6250346;22;20259;-47
2022/10/12 12:43:31;;;;;;;5.77;3.10;;;17.80;99.90;;;;;;6249584;22;20594;-47
2022/10/12 12:46:10;;;;;;;6.83;3.50;;;17.80;99.90;;;;;;6249357;22;20160;-47
2022/10/12 12:48:41;;;;;;;10.07;3.87;;;18.00;99.90;;;;;;6248288;23;20210;-46
2022/10/12 12:51:17;;;;;;;15.43;3.90;;;18.00;99.90;;;;;;6250079;22;20155;-49
2022/10/12 12:54:00;;;;;;;9.80;3.97;;;18.10;99.90;;;;;;6250564;22;20284;-46
2022/10/12 12:56:44;;;;;;;9.23;3.83;;;18.20;99.90;;;;;;6250006;22;20155;-46
2022/10/12 12:59:31;;;;;;;10.90;3.90;;;18.30;99.90;;;;;;6250440;22;20163;-47
2022/10/12 13:02:37;;;;;;;9.90;4.07;;;18.20;99.90;;;;;;6251957;22;20140;-46
2022/10/12 13:05:28;;;;;;;9.07;3.80;;;18.30;99.90;;;;;;6205085;23;20152;-45